sensor_id;sensor_type;location;lat;lon;timestamp;P1;durP1;ratioP1;P2;durP2;ratioP2
55053;SDS011;40954;45.668;18.980;2022-07-22T00:01:33;5.90;;;4.15;;
55053;SDS011;40954;45.668;18.980;2022-07-22T00:03:59;14.13;;;9.52;;
55053;SDS011;40954;45.668;18.980;2022-07-22T00:06:26;8.73;;;4.05;;
55053;SDS011;40954;45.668;18.980;2022-07-22T00:08:53;7.10;;;5.05;;
55053;SDS011;40954;45.668;18.980;2022-07-22T00:11:19;5.43;;;3.42;;
55053;SDS011;40954;45.668;18.980;2022-07-22T00:13:45;4.60;;;3.60;;
55053;SDS011;40954;45.668;18.980;2022-07-22T00:16:11;4.07;;;3.60;;
55053;SDS011;40954;45.668;18.980;2022-07-22T00:18:38;6.38;;;3.33;;
55053;SDS011;40954;45.668;18.980;2022-07-22T00:21:04;6.45;;;4.32;;
55053;SDS011;40954;45.668;18.980;2022-07-22T00:23:30;7.28;;;4.18;;
55053;SDS011;40954;45.668;18.980;2022-07-22T00:25:56;4.03;;;3.65;;
55053;SDS011;40954;45.668;18.980;2022-07-22T00:28:22;4.13;;;3.75;;
55053;SDS011;40954;45.668;18.980;2022-07-22T00:30:48;8.88;;;3.67;;
55053;SDS011;40954;45.668;18.980;2022-07-22T00:33:14;4.25;;;3.85;;
55053;SDS011;40954;45.668;18.980;2022-07-22T00:35:40;5.55;;;3.38;;
55053;SDS011;40954;45.668;18.980;2022-07-22T00:38:06;3.65;;;3.30;;
55053;SDS011;40954;45.668;18.980;2022-07-22T00:40:32;3.47;;;3.17;;
55053;SDS011;40954;45.668;18.980;2022-07-22T00:42:59;5.18;;;3.22;;
55053;SDS011;40954;45.668;18.980;2022-07-22T00:45:25;3.17;;;2.95;;
55053;SDS011;40954;45.668;18.980;2022-07-22T00:47:51;3.78;;;3.10;;
55053;SDS011;40954;45.668;18.980;2022-07-22T00:50:17;10.13;;;3.35;;
55053;SDS011;40954;45.668;18.980;2022-07-22T00:52:45;3.90;;;3.08;;
55053;SDS011;40954;45.668;18.980;2022-07-22T00:55:11;5.18;;;3.25;;
55053;SDS011;40954;45.668;18.980;2022-07-22T00:57:37;7.22;;;3.78;;
55053;SDS011;40954;45.668;18.980;2022-07-22T01:00:05;6.57;;;3.08;;
55053;SDS011;40954;45.668;18.980;2022-07-22T01:02:31;4.13;;;3.70;;
55053;SDS011;40954;45.668;18.980;2022-07-22T01:04:57;4.28;;;3.15;;
55053;SDS011;40954;45.668;18.980;2022-07-22T01:07:23;5.75;;;3.50;;
55053;SDS011;40954;45.668;18.980;2022-07-22T01:09:49;5.82;;;3.35;;
55053;SDS011;40954;45.668;18.980;2022-07-22T01:12:15;11.40;;;3.17;;
55053;SDS011;40954;45.668;18.980;2022-07-22T01:14:41;4.18;;;2.90;;
55053;SDS011;40954;45.668;18.980;2022-07-22T01:17:07;3.67;;;3.30;;
55053;SDS011;40954;45.668;18.980;2022-07-22T01:19:35;5.80;;;3.25;;
55053;SDS011;40954;45.668;18.980;2022-07-22T01:22:01;8.07;;;3.10;;
55053;SDS011;40954;45.668;18.980;2022-07-22T01:24:27;7.07;;;3.60;;
55053;SDS011;40954;45.668;18.980;2022-07-22T01:26:54;7.57;;;3.20;;
55053;SDS011;40954;45.668;18.980;2022-07-22T01:29:20;3.70;;;3.10;;
55053;SDS011;40954;45.668;18.980;2022-07-22T01:31:46;5.32;;;3.13;;
55053;SDS011;40954;45.668;18.980;2022-07-22T01:34:12;4.57;;;3.53;;
55053;SDS011;40954;45.668;18.980;2022-07-22T01:36:38;3.05;;;2.85;;
55053;SDS011;40954;45.668;18.980;2022-07-22T01:39:04;3.40;;;2.92;;
55053;SDS011;40954;45.668;18.980;2022-07-22T01:41:30;5.95;;;2.97;;
55053;SDS011;40954;45.668;18.980;2022-07-22T01:43:56;8.75;;;3.63;;
55053;SDS011;40954;45.668;18.980;2022-07-22T01:46:22;4.18;;;3.00;;
55053;SDS011;40954;45.668;18.980;2022-07-22T01:48:49;6.13;;;3.13;;
55053;SDS011;40954;45.668;18.980;2022-07-22T01:51:15;6.80;;;3.38;;
55053;SDS011;40954;45.668;18.980;2022-07-22T01:53:41;3.30;;;2.80;;
55053;SDS011;40954;45.668;18.980;2022-07-22T01:56:08;4.03;;;2.90;;
55053;SDS011;40954;45.668;18.980;2022-07-22T01:58:34;2.97;;;2.67;;
55053;SDS011;40954;45.668;18.980;2022-07-22T02:01:00;12.00;;;3.30;;
55053;SDS011;40954;45.668;18.980;2022-07-22T02:03:26;3.15;;;2.80;;
55053;SDS011;40954;45.668;18.980;2022-07-22T02:05:52;3.28;;;2.92;;
55053;SDS011;40954;45.668;18.980;2022-07-22T02:08:18;5.45;;;3.30;;
55053;SDS011;40954;45.668;18.980;2022-07-22T02:10:44;5.20;;;3.13;;
55053;SDS011;40954;45.668;18.980;2022-07-22T02:13:10;5.00;;;3.42;;
55053;SDS011;40954;45.668;18.980;2022-07-22T02:15:36;4.57;;;3.22;;
55053;SDS011;40954;45.668;18.980;2022-07-22T02:18:13;7.53;;;3.13;;
55053;SDS011;40954;45.668;18.980;2022-07-22T02:20:39;4.45;;;3.35;;
55053;SDS011;40954;45.668;18.980;2022-07-22T02:23:05;6.25;;;3.92;;
55053;SDS011;40954;45.668;18.980;2022-07-22T02:25:32;4.07;;;3.08;;
55053;SDS011;40954;45.668;18.980;2022-07-22T02:27:58;3.50;;;2.60;;
55053;SDS011;40954;45.668;18.980;2022-07-22T02:30:25;5.32;;;3.45;;
55053;SDS011;40954;45.668;18.980;2022-07-22T02:32:51;6.95;;;3.22;;
55053;SDS011;40954;45.668;18.980;2022-07-22T02:35:17;6.15;;;2.90;;
55053;SDS011;40954;45.668;18.980;2022-07-22T02:37:43;4.47;;;2.85;;
55053;SDS011;40954;45.668;18.980;2022-07-22T02:40:09;7.70;;;2.70;;
55053;SDS011;40954;45.668;18.980;2022-07-22T02:42:36;6.45;;;3.40;;
55053;SDS011;40954;45.668;18.980;2022-07-22T02:45:02;4.95;;;3.00;;
55053;SDS011;40954;45.668;18.980;2022-07-22T02:47:28;6.78;;;3.13;;
55053;SDS011;40954;45.668;18.980;2022-07-22T02:49:54;3.67;;;3.30;;
55053;SDS011;40954;45.668;18.980;2022-07-22T02:52:21;4.90;;;3.53;;
55053;SDS011;40954;45.668;18.980;2022-07-22T02:54:47;8.95;;;3.38;;
55053;SDS011;40954;45.668;18.980;2022-07-22T02:57:13;3.75;;;3.42;;
55053;SDS011;40954;45.668;18.980;2022-07-22T02:59:39;6.90;;;3.63;;
55053;SDS011;40954;45.668;18.980;2022-07-22T03:02:05;3.33;;;3.08;;
55053;SDS011;40954;45.668;18.980;2022-07-22T03:04:31;3.70;;;2.97;;
55053;SDS011;40954;45.668;18.980;2022-07-22T03:06:57;5.75;;;3.30;;
55053;SDS011;40954;45.668;18.980;2022-07-22T03:09:23;7.57;;;3.58;;
55053;SDS011;40954;45.668;18.980;2022-07-22T03:11:49;4.28;;;3.50;;
55053;SDS011;40954;45.668;18.980;2022-07-22T03:14:15;3.97;;;3.30;;
55053;SDS011;40954;45.668;18.980;2022-07-22T03:16:43;3.30;;;3.00;;
55053;SDS011;40954;45.668;18.980;2022-07-22T03:19:09;4.28;;;2.83;;
55053;SDS011;40954;45.668;18.980;2022-07-22T03:21:35;6.43;;;3.10;;
55053;SDS011;40954;45.668;18.980;2022-07-22T03:24:02;6.60;;;3.22;;
55053;SDS011;40954;45.668;18.980;2022-07-22T03:26:28;3.20;;;2.90;;
55053;SDS011;40954;45.668;18.980;2022-07-22T03:28:54;4.20;;;3.88;;
55053;SDS011;40954;45.668;18.980;2022-07-22T03:31:20;7.00;;;4.15;;
55053;SDS011;40954;45.668;18.980;2022-07-22T03:33:46;5.35;;;3.70;;
55053;SDS011;40954;45.668;18.980;2022-07-22T03:36:12;3.67;;;3.30;;
55053;SDS011;40954;45.668;18.980;2022-07-22T03:38:38;4.55;;;3.45;;
55053;SDS011;40954;45.668;18.980;2022-07-22T03:41:04;7.10;;;3.58;;
55053;SDS011;40954;45.668;18.980;2022-07-22T03:43:30;9.88;;;3.80;;
55053;SDS011;40954;45.668;18.980;2022-07-22T03:45:57;4.68;;;3.28;;
55053;SDS011;40954;45.668;18.980;2022-07-22T03:48:23;6.03;;;3.83;;
55053;SDS011;40954;45.668;18.980;2022-07-22T03:50:49;7.82;;;3.90;;
55053;SDS011;40954;45.668;18.980;2022-07-22T03:53:16;19.10;;;4.65;;
55053;SDS011;40954;45.668;18.980;2022-07-22T03:55:42;5.22;;;3.88;;
55053;SDS011;40954;45.668;18.980;2022-07-22T03:58:08;4.97;;;3.30;;
55053;SDS011;40954;45.668;18.980;2022-07-22T04:00:34;5.13;;;3.58;;
55053;SDS011;40954;45.668;18.980;2022-07-22T04:03:01;9.60;;;3.80;;
55053;SDS011;40954;45.668;18.980;2022-07-22T04:05:27;6.90;;;4.13;;
55053;SDS011;40954;45.668;18.980;2022-07-22T04:07:53;4.68;;;3.85;;
55053;SDS011;40954;45.668;18.980;2022-07-22T04:10:19;4.10;;;3.60;;
55053;SDS011;40954;45.668;18.980;2022-07-22T04:12:45;10.55;;;4.70;;
55053;SDS011;40954;45.668;18.980;2022-07-22T04:15:12;12.18;;;4.53;;
55053;SDS011;40954;45.668;18.980;2022-07-22T04:17:38;7.85;;;4.40;;
55053;SDS011;40954;45.668;18.980;2022-07-22T04:20:04;8.82;;;4.53;;
55053;SDS011;40954;45.668;18.980;2022-07-22T04:22:31;7.60;;;4.43;;
55053;SDS011;40954;45.668;18.980;2022-07-22T04:24:57;4.88;;;4.22;;
55053;SDS011;40954;45.668;18.980;2022-07-22T04:27:23;8.13;;;4.05;;
55053;SDS011;40954;45.668;18.980;2022-07-22T04:29:49;7.55;;;4.10;;
55053;SDS011;40954;45.668;18.980;2022-07-22T04:32:15;8.50;;;4.25;;
55053;SDS011;40954;45.668;18.980;2022-07-22T04:34:41;4.85;;;3.58;;
55053;SDS011;40954;45.668;18.980;2022-07-22T04:37:08;9.45;;;3.67;;
55053;SDS011;40954;45.668;18.980;2022-07-22T04:39:34;11.25;;;3.90;;
55053;SDS011;40954;45.668;18.980;2022-07-22T04:42:00;8.43;;;4.10;;
55053;SDS011;40954;45.668;18.980;2022-07-22T04:44:26;7.95;;;3.70;;
55053;SDS011;40954;45.668;18.980;2022-07-22T04:46:52;12.30;;;4.97;;
55053;SDS011;40954;45.668;18.980;2022-07-22T04:49:18;8.18;;;4.07;;
55053;SDS011;40954;45.668;18.980;2022-07-22T04:51:44;13.43;;;4.65;;
55053;SDS011;40954;45.668;18.980;2022-07-22T04:54:10;9.98;;;5.00;;
55053;SDS011;40954;45.668;18.980;2022-07-22T04:56:37;7.43;;;4.43;;
55053;SDS011;40954;45.668;18.980;2022-07-22T04:59:03;8.65;;;5.43;;
55053;SDS011;40954;45.668;18.980;2022-07-22T05:01:29;8.82;;;4.32;;
55053;SDS011;40954;45.668;18.980;2022-07-22T05:03:55;12.27;;;5.07;;
55053;SDS011;40954;45.668;18.980;2022-07-22T05:06:21;8.40;;;4.35;;
55053;SDS011;40954;45.668;18.980;2022-07-22T05:08:47;10.98;;;5.50;;
55053;SDS011;40954;45.668;18.980;2022-07-22T05:11:13;9.68;;;5.38;;
55053;SDS011;40954;45.668;18.980;2022-07-22T05:13:39;5.97;;;4.70;;
55053;SDS011;40954;45.668;18.980;2022-07-22T05:16:06;5.25;;;4.68;;
55053;SDS011;40954;45.668;18.980;2022-07-22T05:18:32;8.57;;;4.75;;
55053;SDS011;40954;45.668;18.980;2022-07-22T05:20:59;8.57;;;4.18;;
55053;SDS011;40954;45.668;18.980;2022-07-22T05:23:25;8.85;;;5.05;;
55053;SDS011;40954;45.668;18.980;2022-07-22T05:25:52;10.48;;;4.85;;
55053;SDS011;40954;45.668;18.980;2022-07-22T05:28:18;7.40;;;4.15;;
55053;SDS011;40954;45.668;18.980;2022-07-22T05:30:45;7.80;;;4.25;;
55053;SDS011;40954;45.668;18.980;2022-07-22T05:33:11;8.10;;;4.45;;
55053;SDS011;40954;45.668;18.980;2022-07-22T05:35:37;9.07;;;4.45;;
55053;SDS011;40954;45.668;18.980;2022-07-22T05:38:03;8.73;;;4.72;;
55053;SDS011;40954;45.668;18.980;2022-07-22T05:40:30;7.05;;;4.35;;
55053;SDS011;40954;45.668;18.980;2022-07-22T05:42:57;8.07;;;4.32;;
55053;SDS011;40954;45.668;18.980;2022-07-22T05:45:23;9.40;;;6.38;;
55053;SDS011;40954;45.668;18.980;2022-07-22T05:47:49;8.65;;;6.75;;
55053;SDS011;40954;45.668;18.980;2022-07-22T05:50:15;6.97;;;5.22;;
55053;SDS011;40954;45.668;18.980;2022-07-22T05:52:41;12.82;;;5.22;;
55053;SDS011;40954;45.668;18.980;2022-07-22T05:55:07;9.70;;;4.88;;
55053;SDS011;40954;45.668;18.980;2022-07-22T05:57:35;9.02;;;4.95;;
55053;SDS011;40954;45.668;18.980;2022-07-22T06:00:01;8.02;;;4.95;;
55053;SDS011;40954;45.668;18.980;2022-07-22T06:02:27;8.23;;;4.53;;
55053;SDS011;40954;45.668;18.980;2022-07-22T06:04:53;8.57;;;4.93;;
55053;SDS011;40954;45.668;18.980;2022-07-22T06:07:20;11.68;;;4.70;;
55053;SDS011;40954;45.668;18.980;2022-07-22T06:09:46;8.75;;;4.68;;
55053;SDS011;40954;45.668;18.980;2022-07-22T06:12:12;6.20;;;4.10;;
55053;SDS011;40954;45.668;18.980;2022-07-22T06:14:38;7.22;;;5.18;;
55053;SDS011;40954;45.668;18.980;2022-07-22T06:17:04;9.40;;;5.40;;
55053;SDS011;40954;45.668;18.980;2022-07-22T06:19:30;8.05;;;4.07;;
55053;SDS011;40954;45.668;18.980;2022-07-22T06:21:57;5.90;;;4.65;;
55053;SDS011;40954;45.668;18.980;2022-07-22T06:24:23;6.93;;;4.72;;
55053;SDS011;40954;45.668;18.980;2022-07-22T06:26:49;8.02;;;4.10;;
55053;SDS011;40954;45.668;18.980;2022-07-22T06:29:16;8.18;;;4.68;;
55053;SDS011;40954;45.668;18.980;2022-07-22T06:31:42;21.48;;;6.28;;
55053;SDS011;40954;45.668;18.980;2022-07-22T06:34:08;11.85;;;4.78;;
55053;SDS011;40954;45.668;18.980;2022-07-22T06:36:34;10.63;;;5.47;;
55053;SDS011;40954;45.668;18.980;2022-07-22T06:39:00;9.27;;;4.72;;
55053;SDS011;40954;45.668;18.980;2022-07-22T06:41:26;9.90;;;5.35;;
55053;SDS011;40954;45.668;18.980;2022-07-22T06:43:52;16.25;;;6.53;;
55053;SDS011;40954;45.668;18.980;2022-07-22T06:46:19;12.43;;;6.45;;
55053;SDS011;40954;45.668;18.980;2022-07-22T06:48:45;10.40;;;5.18;;
55053;SDS011;40954;45.668;18.980;2022-07-22T06:51:11;8.52;;;4.40;;
55053;SDS011;40954;45.668;18.980;2022-07-22T06:53:37;10.48;;;5.45;;
55053;SDS011;40954;45.668;18.980;2022-07-22T06:56:03;9.63;;;5.05;;
55053;SDS011;40954;45.668;18.980;2022-07-22T06:58:30;5.88;;;4.15;;
55053;SDS011;40954;45.668;18.980;2022-07-22T07:00:56;9.70;;;3.83;;
55053;SDS011;40954;45.668;18.980;2022-07-22T07:03:22;4.93;;;4.15;;
55053;SDS011;40954;45.668;18.980;2022-07-22T07:05:50;8.55;;;4.35;;
55053;SDS011;40954;45.668;18.980;2022-07-22T07:08:16;7.75;;;4.28;;
55053;SDS011;40954;45.668;18.980;2022-07-22T07:10:42;9.80;;;4.63;;
55053;SDS011;40954;45.668;18.980;2022-07-22T07:13:08;9.73;;;4.68;;
55053;SDS011;40954;45.668;18.980;2022-07-22T07:15:34;11.13;;;4.28;;
55053;SDS011;40954;45.668;18.980;2022-07-22T07:18:01;6.45;;;3.75;;
55053;SDS011;40954;45.668;18.980;2022-07-22T07:20:27;9.85;;;4.63;;
55053;SDS011;40954;45.668;18.980;2022-07-22T07:22:53;9.77;;;4.00;;
55053;SDS011;40954;45.668;18.980;2022-07-22T07:25:20;6.50;;;4.10;;
55053;SDS011;40954;45.668;18.980;2022-07-22T07:27:46;6.78;;;3.67;;
55053;SDS011;40954;45.668;18.980;2022-07-22T07:30:12;6.40;;;3.60;;
55053;SDS011;40954;45.668;18.980;2022-07-22T07:32:38;8.30;;;3.97;;
55053;SDS011;40954;45.668;18.980;2022-07-22T07:35:05;5.53;;;3.55;;
55053;SDS011;40954;45.668;18.980;2022-07-22T07:37:32;10.18;;;4.22;;
55053;SDS011;40954;45.668;18.980;2022-07-22T07:39:58;10.35;;;4.55;;
55053;SDS011;40954;45.668;18.980;2022-07-22T07:42:24;8.05;;;4.38;;
55053;SDS011;40954;45.668;18.980;2022-07-22T07:44:50;8.13;;;4.03;;
55053;SDS011;40954;45.668;18.980;2022-07-22T07:47:17;8.18;;;4.75;;
55053;SDS011;40954;45.668;18.980;2022-07-22T07:49:45;6.78;;;3.95;;
55053;SDS011;40954;45.668;18.980;2022-07-22T07:52:11;11.43;;;3.38;;
55053;SDS011;40954;45.668;18.980;2022-07-22T07:54:38;6.28;;;3.40;;
55053;SDS011;40954;45.668;18.980;2022-07-22T07:57:05;5.93;;;3.40;;
55053;SDS011;40954;45.668;18.980;2022-07-22T07:59:31;7.20;;;3.40;;
55053;SDS011;40954;45.668;18.980;2022-07-22T08:01:57;7.05;;;3.67;;
55053;SDS011;40954;45.668;18.980;2022-07-22T08:04:24;4.60;;;3.47;;
55053;SDS011;40954;45.668;18.980;2022-07-22T08:06:50;6.68;;;3.63;;
55053;SDS011;40954;45.668;18.980;2022-07-22T08:09:16;10.85;;;4.03;;
55053;SDS011;40954;45.668;18.980;2022-07-22T08:11:42;11.15;;;4.00;;
55053;SDS011;40954;45.668;18.980;2022-07-22T08:14:08;9.10;;;3.70;;
55053;SDS011;40954;45.668;18.980;2022-07-22T08:16:34;7.13;;;3.13;;
55053;SDS011;40954;45.668;18.980;2022-07-22T08:19:00;3.92;;;2.90;;
55053;SDS011;40954;45.668;18.980;2022-07-22T08:21:26;18.20;;;3.70;;
55053;SDS011;40954;45.668;18.980;2022-07-22T08:23:52;10.50;;;3.25;;
55053;SDS011;40954;45.668;18.980;2022-07-22T08:26:19;13.27;;;4.35;;
55053;SDS011;40954;45.668;18.980;2022-07-22T08:28:45;4.13;;;2.88;;
55053;SDS011;40954;45.668;18.980;2022-07-22T08:31:11;9.77;;;3.28;;
55053;SDS011;40954;45.668;18.980;2022-07-22T08:33:37;9.45;;;3.33;;
55053;SDS011;40954;45.668;18.980;2022-07-22T08:36:03;4.85;;;3.22;;
55053;SDS011;40954;45.668;18.980;2022-07-22T08:38:29;5.13;;;3.42;;
55053;SDS011;40954;45.668;18.980;2022-07-22T08:40:57;6.95;;;3.20;;
55053;SDS011;40954;45.668;18.980;2022-07-22T08:43:23;3.65;;;2.88;;
55053;SDS011;40954;45.668;18.980;2022-07-22T08:45:50;3.08;;;2.80;;
55053;SDS011;40954;45.668;18.980;2022-07-22T08:48:16;5.32;;;3.05;;
55053;SDS011;40954;45.668;18.980;2022-07-22T08:50:42;4.90;;;3.00;;
55053;SDS011;40954;45.668;18.980;2022-07-22T08:53:09;3.00;;;2.67;;
55053;SDS011;40954;45.668;18.980;2022-07-22T08:55:44;3.63;;;3.17;;
55053;SDS011;40954;45.668;18.980;2022-07-22T08:58:11;2.85;;;2.65;;
55053;SDS011;40954;45.668;18.980;2022-07-22T09:00:37;4.10;;;2.72;;
55053;SDS011;40954;45.668;18.980;2022-07-22T09:03:25;6.65;;;2.75;;
55053;SDS011;40954;45.668;18.980;2022-07-22T09:05:52;4.20;;;2.50;;
55053;SDS011;40954;45.668;18.980;2022-07-22T09:08:19;3.30;;;2.67;;
55053;SDS011;40954;45.668;18.980;2022-07-22T09:10:45;6.00;;;2.58;;
55053;SDS011;40954;45.668;18.980;2022-07-22T09:13:11;8.18;;;2.60;;
55053;SDS011;40954;45.668;18.980;2022-07-22T09:15:38;2.75;;;2.53;;
55053;SDS011;40954;45.668;18.980;2022-07-22T09:18:06;3.95;;;2.55;;
55053;SDS011;40954;45.668;18.980;2022-07-22T09:20:34;5.43;;;2.65;;
55053;SDS011;40954;45.668;18.980;2022-07-22T09:23:00;2.35;;;2.15;;
55053;SDS011;40954;45.668;18.980;2022-07-22T09:25:27;7.13;;;2.80;;
55053;SDS011;40954;45.668;18.980;2022-07-22T09:27:55;16.30;;;2.50;;
55053;SDS011;40954;45.668;18.980;2022-07-22T09:30:25;5.38;;;2.55;;
55053;SDS011;40954;45.668;18.980;2022-07-22T09:32:52;5.63;;;2.38;;
55053;SDS011;40954;45.668;18.980;2022-07-22T09:35:19;11.02;;;2.30;;
55053;SDS011;40954;45.668;18.980;2022-07-22T09:37:47;5.63;;;2.60;;
55053;SDS011;40954;45.668;18.980;2022-07-22T09:40:14;8.23;;;2.47;;
55053;SDS011;40954;45.668;18.980;2022-07-22T09:42:44;9.75;;;3.28;;
55053;SDS011;40954;45.668;18.980;2022-07-22T09:45:10;9.20;;;3.10;;
55053;SDS011;40954;45.668;18.980;2022-07-22T09:47:36;2.72;;;2.30;;
55053;SDS011;40954;45.668;18.980;2022-07-22T09:50:17;4.50;;;1.98;;
55053;SDS011;40954;45.668;18.980;2022-07-22T09:52:43;5.72;;;2.58;;
55053;SDS011;40954;45.668;18.980;2022-07-22T09:55:09;4.70;;;2.65;;
55053;SDS011;40954;45.668;18.980;2022-07-22T09:57:36;2.50;;;2.28;;
55053;SDS011;40954;45.668;18.980;2022-07-22T10:00:03;3.97;;;1.65;;
55053;SDS011;40954;45.668;18.980;2022-07-22T10:02:31;4.13;;;2.20;;
55053;SDS011;40954;45.668;18.980;2022-07-22T10:04:57;6.72;;;2.38;;
55053;SDS011;40954;45.668;18.980;2022-07-22T10:07:24;2.28;;;2.08;;
55053;SDS011;40954;45.668;18.980;2022-07-22T10:09:51;2.38;;;2.08;;
55053;SDS011;40954;45.668;18.980;2022-07-22T10:12:18;9.63;;;3.22;;
55053;SDS011;40954;45.668;18.980;2022-07-22T10:14:44;4.20;;;2.33;;
55053;SDS011;40954;45.668;18.980;2022-07-22T10:17:12;4.60;;;2.67;;
55053;SDS011;40954;45.668;18.980;2022-07-22T10:19:39;5.32;;;2.28;;
55053;SDS011;40954;45.668;18.980;2022-07-22T10:22:29;3.50;;;2.10;;
55053;SDS011;40954;45.668;18.980;2022-07-22T10:25:00;2.92;;;2.33;;
55053;SDS011;40954;45.668;18.980;2022-07-22T10:30:36;3.28;;;2.28;;
55053;SDS011;40954;45.668;18.980;2022-07-22T10:35:32;4.18;;;2.38;;
55053;SDS011;40954;45.668;18.980;2022-07-22T10:38:00;4.07;;;2.30;;
55053;SDS011;40954;45.668;18.980;2022-07-22T10:40:27;2.85;;;2.30;;
55053;SDS011;40954;45.668;18.980;2022-07-22T10:45:24;2.78;;;2.15;;
55053;SDS011;40954;45.668;18.980;2022-07-22T10:47:56;2.40;;;2.20;;
55053;SDS011;40954;45.668;18.980;2022-07-22T10:53:09;5.43;;;2.45;;
55053;SDS011;40954;45.668;18.980;2022-07-22T10:55:35;2.55;;;1.80;;
55053;SDS011;40954;45.668;18.980;2022-07-22T11:00:57;2.20;;;2.00;;
55053;SDS011;40954;45.668;18.980;2022-07-22T11:03:24;2.72;;;2.30;;
55053;SDS011;40954;45.668;18.980;2022-07-22T11:05:51;2.38;;;2.20;;
55053;SDS011;40954;45.668;18.980;2022-07-22T11:08:17;3.13;;;2.22;;
55053;SDS011;40954;45.668;18.980;2022-07-22T11:10:47;4.93;;;2.10;;
55053;SDS011;40954;45.668;18.980;2022-07-22T11:13:29;1.60;;;1.50;;
55053;SDS011;40954;45.668;18.980;2022-07-22T11:15:56;3.00;;;1.92;;
55053;SDS011;40954;45.668;18.980;2022-07-22T11:18:22;3.20;;;2.60;;
55053;SDS011;40954;45.668;18.980;2022-07-22T11:20:48;3.38;;;2.17;;
55053;SDS011;40954;45.668;18.980;2022-07-22T11:23:14;7.50;;;2.25;;
55053;SDS011;40954;45.668;18.980;2022-07-22T11:25:41;2.58;;;2.40;;
55053;SDS011;40954;45.668;18.980;2022-07-22T11:28:08;2.30;;;2.10;;
55053;SDS011;40954;45.668;18.980;2022-07-22T11:30:34;3.00;;;1.92;;
55053;SDS011;40954;45.668;18.980;2022-07-22T11:33:01;3.65;;;2.42;;
55053;SDS011;40954;45.668;18.980;2022-07-22T11:35:27;3.63;;;2.30;;
55053;SDS011;40954;45.668;18.980;2022-07-22T11:37:57;2.75;;;1.95;;
55053;SDS011;40954;45.668;18.980;2022-07-22T11:40:23;3.45;;;2.33;;
55053;SDS011;40954;45.668;18.980;2022-07-22T11:43:02;4.03;;;2.20;;
55053;SDS011;40954;45.668;18.980;2022-07-22T11:45:28;4.40;;;2.33;;
55053;SDS011;40954;45.668;18.980;2022-07-22T11:47:54;5.97;;;2.20;;
55053;SDS011;40954;45.668;18.980;2022-07-22T11:50:32;3.10;;;2.17;;
55053;SDS011;40954;45.668;18.980;2022-07-22T11:53:01;7.78;;;2.58;;
55053;SDS011;40954;45.668;18.980;2022-07-22T11:55:27;3.65;;;2.40;;
55053;SDS011;40954;45.668;18.980;2022-07-22T11:57:53;3.25;;;2.30;;
55053;SDS011;40954;45.668;18.980;2022-07-22T12:00:19;8.93;;;2.38;;
55053;SDS011;40954;45.668;18.980;2022-07-22T12:02:45;3.65;;;2.00;;
55053;SDS011;40954;45.668;18.980;2022-07-22T12:05:11;3.67;;;2.33;;
55053;SDS011;40954;45.668;18.980;2022-07-22T12:07:38;2.90;;;2.13;;
55053;SDS011;40954;45.668;18.980;2022-07-22T12:10:04;2.13;;;1.95;;
55053;SDS011;40954;45.668;18.980;2022-07-22T12:12:40;3.83;;;1.98;;
55053;SDS011;40954;45.668;18.980;2022-07-22T12:15:07;4.43;;;2.38;;
55053;SDS011;40954;45.668;18.980;2022-07-22T12:17:34;9.40;;;2.45;;
55053;SDS011;40954;45.668;18.980;2022-07-22T12:20:09;2.20;;;2.00;;
55053;SDS011;40954;45.668;18.980;2022-07-22T12:22:43;2.35;;;2.15;;
55053;SDS011;40954;45.668;18.980;2022-07-22T12:25:10;2.90;;;2.35;;
55053;SDS011;40954;45.668;18.980;2022-07-22T12:27:36;4.30;;;2.03;;
55053;SDS011;40954;45.668;18.980;2022-07-22T12:30:11;4.88;;;2.10;;
55053;SDS011;40954;45.668;18.980;2022-07-22T12:32:37;2.25;;;1.80;;
55053;SDS011;40954;45.668;18.980;2022-07-22T12:35:12;3.80;;;2.10;;
55053;SDS011;40954;45.668;18.980;2022-07-22T12:37:44;3.95;;;2.28;;
55053;SDS011;40954;45.668;18.980;2022-07-22T12:40:11;7.97;;;2.53;;
55053;SDS011;40954;45.668;18.980;2022-07-22T12:42:43;6.32;;;2.30;;
55053;SDS011;40954;45.668;18.980;2022-07-22T12:45:14;6.45;;;2.28;;
55053;SDS011;40954;45.668;18.980;2022-07-22T12:47:51;6.05;;;2.20;;
55053;SDS011;40954;45.668;18.980;2022-07-22T12:52:49;13.65;;;2.58;;
55053;SDS011;40954;45.668;18.980;2022-07-22T12:55:15;10.38;;;2.72;;
55053;SDS011;40954;45.668;18.980;2022-07-22T12:57:41;10.88;;;2.78;;
55053;SDS011;40954;45.668;18.980;2022-07-22T13:00:08;5.55;;;2.03;;
55053;SDS011;40954;45.668;18.980;2022-07-22T13:02:35;8.98;;;2.42;;
55053;SDS011;40954;45.668;18.980;2022-07-22T13:05:01;14.40;;;2.65;;
55053;SDS011;40954;45.668;18.980;2022-07-22T13:07:27;5.55;;;2.22;;
55053;SDS011;40954;45.668;18.980;2022-07-22T13:09:53;12.90;;;2.78;;
55053;SDS011;40954;45.668;18.980;2022-07-22T13:12:19;7.10;;;2.78;;
55053;SDS011;40954;45.668;18.980;2022-07-22T13:14:45;4.80;;;2.50;;
55053;SDS011;40954;45.668;18.980;2022-07-22T13:17:11;6.07;;;2.92;;
55053;SDS011;40954;45.668;18.980;2022-07-22T13:19:37;2.38;;;1.92;;
55053;SDS011;40954;45.668;18.980;2022-07-22T13:22:03;7.72;;;2.63;;
55053;SDS011;40954;45.668;18.980;2022-07-22T13:24:29;2.55;;;2.00;;
55053;SDS011;40954;45.668;18.980;2022-07-22T13:26:56;4.15;;;2.28;;
55053;SDS011;40954;45.668;18.980;2022-07-22T13:29:22;4.43;;;1.90;;
55053;SDS011;40954;45.668;18.980;2022-07-22T13:31:48;4.13;;;2.50;;
55053;SDS011;40954;45.668;18.980;2022-07-22T13:34:14;2.67;;;2.00;;
55053;SDS011;40954;45.668;18.980;2022-07-22T13:36:40;6.40;;;2.53;;
55053;SDS011;40954;45.668;18.980;2022-07-22T13:39:06;2.50;;;2.20;;
55053;SDS011;40954;45.668;18.980;2022-07-22T13:41:32;4.97;;;2.72;;
55053;SDS011;40954;45.668;18.980;2022-07-22T13:43:58;5.72;;;2.35;;
55053;SDS011;40954;45.668;18.980;2022-07-22T13:46:24;4.30;;;2.13;;
55053;SDS011;40954;45.668;18.980;2022-07-22T13:48:50;5.25;;;2.38;;
55053;SDS011;40954;45.668;18.980;2022-07-22T13:51:18;4.15;;;2.45;;
55053;SDS011;40954;45.668;18.980;2022-07-22T13:53:44;3.05;;;2.33;;
55053;SDS011;40954;45.668;18.980;2022-07-22T13:56:10;3.03;;;2.20;;
55053;SDS011;40954;45.668;18.980;2022-07-22T13:58:39;3.58;;;2.13;;
55053;SDS011;40954;45.668;18.980;2022-07-22T14:01:06;6.00;;;2.47;;
55053;SDS011;40954;45.668;18.980;2022-07-22T14:03:33;4.22;;;2.13;;
55053;SDS011;40954;45.668;18.980;2022-07-22T14:05:59;5.60;;;2.42;;
55053;SDS011;40954;45.668;18.980;2022-07-22T14:08:25;3.33;;;2.22;;
55053;SDS011;40954;45.668;18.980;2022-07-22T14:10:51;3.38;;;2.17;;
55053;SDS011;40954;45.668;18.980;2022-07-22T14:13:17;4.47;;;2.40;;
55053;SDS011;40954;45.668;18.980;2022-07-22T14:15:43;9.23;;;2.50;;
55053;SDS011;40954;45.668;18.980;2022-07-22T14:18:09;2.90;;;1.90;;
55053;SDS011;40954;45.668;18.980;2022-07-22T14:20:35;6.10;;;2.28;;
55053;SDS011;40954;45.668;18.980;2022-07-22T14:23:02;4.13;;;2.28;;
55053;SDS011;40954;45.668;18.980;2022-07-22T14:25:30;5.68;;;2.72;;
55053;SDS011;40954;45.668;18.980;2022-07-22T14:27:56;4.03;;;2.25;;
55053;SDS011;40954;45.668;18.980;2022-07-22T14:30:23;5.55;;;2.40;;
55053;SDS011;40954;45.668;18.980;2022-07-22T14:32:49;4.22;;;2.47;;
55053;SDS011;40954;45.668;18.980;2022-07-22T14:35:15;6.60;;;2.58;;
55053;SDS011;40954;45.668;18.980;2022-07-22T14:37:41;7.82;;;2.95;;
55053;SDS011;40954;45.668;18.980;2022-07-22T14:40:08;6.07;;;2.72;;
55053;SDS011;40954;45.668;18.980;2022-07-22T14:42:34;5.55;;;2.22;;
55053;SDS011;40954;45.668;18.980;2022-07-22T14:45:00;4.75;;;2.20;;
55053;SDS011;40954;45.668;18.980;2022-07-22T14:47:26;5.05;;;2.58;;